createdAt,value
2022-08-09T00:00:12.057Z,3.27
2022-08-09T00:02:49.079Z,3.60
2022-08-09T00:06:18.188Z,4.90
2022-08-09T00:08:11.156Z,3.90
2022-08-09T00:10:42.440Z,4.13
2022-08-09T00:13:16.772Z,3.60
2022-08-09T00:15:59.317Z,4.13
2022-08-09T00:18:34.720Z,4.22
2022-08-09T00:21:05.041Z,4.00
2022-08-09T00:23:57.426Z,4.68
2022-08-09T00:26:30.073Z,4.20
2022-08-09T00:29:01.723Z,4.60
2022-08-09T00:31:58.233Z,4.50
2022-08-09T00:34:19.566Z,3.85
2022-08-09T00:36:49.600Z,4.10
2022-08-09T00:40:13.054Z,3.83
2022-08-09T00:44:16.633Z,4.07
2022-08-09T00:44:56.809Z,4.17
2022-08-09T00:47:25.486Z,3.67
2022-08-09T00:49:56.594Z,3.80
2022-08-09T00:52:30.220Z,3.97
2022-08-09T00:55:00.323Z,3.42
2022-08-09T00:57:34.273Z,3.97
2022-08-09T01:00:21.363Z,3.10
2022-08-09T01:02:52.888Z,3.33
2022-08-09T01:05:53.637Z,3.33
2022-08-09T01:08:26.687Z,2.67
2022-08-09T01:11:04.506Z,3.10
2022-08-09T01:13:59.015Z,2.75
2022-08-09T01:16:35.237Z,3.63
2022-08-09T01:19:17.008Z,2.80
2022-08-09T01:22:41.942Z,3.57
2022-08-09T01:25:49.006Z,3.45
2022-08-09T01:28:22.537Z,3.90
2022-08-09T01:30:58.228Z,2.97
2022-08-09T01:33:30.302Z,3.70
2022-08-09T01:36:04.250Z,3.53
2022-08-09T01:38:36.970Z,3.55
2022-08-09T01:41:14.289Z,3.57
2022-08-09T01:43:52.066Z,3.37
2022-08-09T01:46:26.366Z,3.47
2022-08-09T01:48:56.862Z,4.00
2022-08-09T01:51:26.978Z,3.60
2022-08-09T01:54:04.170Z,3.50
2022-08-09T01:56:34.395Z,3.87
2022-08-09T01:59:09.638Z,3.70
2022-08-09T02:01:59.346Z,3.33
2022-08-09T02:04:29.578Z,2.83
2022-08-09T02:07:18.361Z,3.77
2022-08-09T02:10:07.957Z,3.53
2022-08-09T02:12:39.182Z,3.60
2022-08-09T02:15:11.815Z,3.67
2022-08-09T02:18:09.901Z,3.03
2022-08-09T02:20:36.188Z,3.43
2022-08-09T02:23:09.048Z,3.93
2022-08-09T02:25:42.716Z,3.67
2022-08-09T02:28:21.275Z,3.60
2022-08-09T02:30:59.495Z,3.23
2022-08-09T02:33:38.397Z,3.83
2022-08-09T02:36:26.216Z,3.40
2022-08-09T02:38:56.610Z,4.07
2022-08-09T02:41:29.500Z,3.80
2022-08-09T02:44:10.510Z,3.50
2022-08-09T02:46:53.661Z,3.57
2022-08-09T02:49:27.248Z,3.73
2022-08-09T02:52:08.499Z,3.67
2022-08-09T02:54:54.719Z,4.03
2022-08-09T02:57:26.812Z,3.43
2022-08-09T03:00:11.401Z,3.40
2022-08-09T03:02:59.740Z,2.93
2022-08-09T03:05:28.818Z,3.53
2022-08-09T03:07:57.827Z,4.03
2022-08-09T03:10:27.322Z,3.30
2022-08-09T03:12:56.946Z,3.80
2022-08-09T03:16:04.324Z,3.43
2022-08-09T03:18:16.654Z,4.13
2022-08-09T03:21:00.894Z,3.97
2022-08-09T03:23:29.529Z,3.85
2022-08-09T03:26:05.196Z,4.37
2022-08-09T03:28:35.315Z,4.38
2022-08-09T03:31:10.190Z,3.07
2022-08-09T03:33:53.301Z,3.67
2022-08-09T03:36:27.418Z,4.83
2022-08-09T03:38:56.548Z,3.43
2022-08-09T03:41:30.099Z,4.00
2022-08-09T03:44:12.722Z,3.43
2022-08-09T03:46:40.590Z,3.30
2022-08-09T03:49:10.803Z,3.23
2022-08-09T03:51:57.589Z,3.63
2022-08-09T03:54:31.827Z,3.80
2022-08-09T03:57:04.322Z,3.63
2022-08-09T03:59:43.301Z,3.70
2022-08-09T04:02:26.604Z,3.60
2022-08-09T04:04:58.584Z,3.70
2022-08-09T04:07:47.936Z,3.67
2022-08-09T04:10:15.382Z,3.97
2022-08-09T04:12:51.112Z,3.73
2022-08-09T04:15:38.804Z,3.63
2022-08-09T04:18:16.549Z,4.47
2022-08-09T04:20:47.879Z,3.77
2022-08-09T04:23:17.228Z,3.00
2022-08-09T04:25:51.651Z,3.80
2022-08-09T04:28:33.301Z,3.53
2022-08-09T04:31:07.641Z,3.50
2022-08-09T04:33:47.357Z,4.20
2022-08-09T04:36:27.778Z,4.40
2022-08-09T04:38:56.873Z,4.10
2022-08-09T04:41:32.955Z,4.25
2022-08-09T04:44:07.155Z,4.28
2022-08-09T04:46:59.296Z,4.03
2022-08-09T04:49:53.184Z,3.85
2022-08-09T04:52:26.707Z,3.17
2022-08-09T04:54:55.548Z,3.97
2022-08-09T04:57:24.988Z,3.83
2022-08-09T04:59:54.568Z,3.63
2022-08-09T05:02:23.603Z,3.80
2022-08-09T05:04:55.149Z,4.00
2022-08-09T05:07:29.086Z,3.67
2022-08-09T05:10:01.719Z,3.75
2022-08-09T05:12:32.817Z,4.38
2022-08-09T05:15:03.527Z,3.60
2022-08-09T05:18:50.295Z,4.57
2022-08-09T05:20:29.987Z,3.97
2022-08-09T05:23:53.684Z,3.80
2022-08-09T05:25:50.691Z,3.80
2022-08-09T05:28:19.616Z,3.65
2022-08-09T05:30:48.213Z,3.95
2022-08-09T05:33:16.439Z,3.78
2022-08-09T05:35:46.698Z,3.88
2022-08-09T05:38:21.724Z,3.85
2022-08-09T05:40:50.743Z,3.78
2022-08-09T05:43:20.794Z,4.38
2022-08-09T05:45:55.918Z,4.13
2022-08-09T05:48:27.811Z,3.65
2022-08-09T05:51:45.875Z,5.05
2022-08-09T05:53:57.253Z,4.07
2022-08-09T05:56:27.081Z,4.20
2022-08-09T05:58:58.580Z,3.55
2022-08-09T06:01:33.713Z,4.15
2022-08-09T06:04:05.912Z,3.78
2022-08-09T06:06:34.561Z,3.70
2022-08-09T06:09:05.444Z,3.55
2022-08-09T06:11:41.163Z,3.33
2022-08-09T06:14:26.038Z,3.38
2022-08-09T06:16:55.331Z,3.50
2022-08-09T06:19:25.438Z,3.83
2022-08-09T06:21:58.468Z,3.53
2022-08-09T06:24:28.635Z,4.05
2022-08-09T06:26:56.854Z,3.47
2022-08-09T06:29:26.780Z,3.78
2022-08-09T06:32:08.675Z,3.25
2022-08-09T06:34:37.997Z,2.75
2022-08-09T06:37:09.923Z,3.72
2022-08-09T06:39:57.742Z,3.65
2022-08-09T06:42:30.807Z,2.95
2022-08-09T06:46:03.409Z,3.25
2022-08-09T06:48:00.719Z,3.10
2022-08-09T06:50:30.951Z,2.97
2022-08-09T06:53:00.863Z,3.00
2022-08-09T06:55:33.090Z,3.63
2022-08-09T06:58:03.887Z,3.30
2022-08-09T07:00:57.226Z,3.33
2022-08-09T07:03:28.031Z,3.53
2022-08-09T07:06:02.517Z,3.20
2022-08-09T07:08:33.946Z,3.55
2022-08-09T07:11:04.359Z,3.72
2022-08-09T07:13:45.112Z,2.92
2022-08-09T07:16:42.209Z,2.55
2022-08-09T07:19:15.351Z,3.05
2022-08-09T07:21:55.533Z,3.40
2022-08-09T07:24:31.962Z,2.50
2022-08-09T07:27:03.700Z,2.50
2022-08-09T07:29:42.816Z,2.83
2022-08-09T07:32:11.296Z,3.25
2022-08-09T07:34:39.371Z,2.88
2022-08-09T07:37:15.936Z,2.50
2022-08-09T07:39:44.753Z,2.97
2022-08-09T07:42:16.055Z,2.35
2022-08-09T07:44:51.769Z,2.53
2022-08-09T07:47:23.120Z,2.75
2022-08-09T07:50:04.906Z,2.97
2022-08-09T07:52:36.671Z,3.40
2022-08-09T07:55:08.881Z,2.70
2022-08-09T07:57:47.353Z,2.70
2022-08-09T08:00:20.653Z,2.63
2022-08-09T08:03:08.046Z,2.78
2022-08-09T08:05:53.736Z,3.00
2022-08-09T08:09:00.086Z,2.30
2022-08-09T08:12:08.803Z,2.33
2022-08-09T08:14:00.167Z,2.75
2022-08-09T08:16:32.060Z,2.78
2022-08-09T08:19:02.614Z,2.10
2022-08-09T08:21:31.559Z,2.20
2022-08-09T08:24:01.321Z,2.83
2022-08-09T08:26:55.099Z,2.72
2022-08-09T08:29:27.895Z,2.20
2022-08-09T08:32:04.233Z,2.47
2022-08-09T08:34:34.514Z,2.88
2022-08-09T08:37:05.177Z,2.28
2022-08-09T08:39:39.722Z,1.92
2022-08-09T08:42:12.482Z,2.55
2022-08-09T08:44:43.880Z,2.92
2022-08-09T08:47:15.631Z,2.28
2022-08-09T08:49:48.256Z,2.08
2022-08-09T08:55:07.353Z,2.45
2022-08-09T08:57:37.402Z,2.60
2022-08-09T09:00:16.951Z,2.22
2022-08-09T09:02:52.722Z,2.58
2022-08-09T09:05:57.520Z,2.03
2022-08-09T09:08:30.319Z,2.13
2022-08-09T09:11:03.104Z,2.13
2022-08-09T09:13:41.696Z,2.00
2022-08-09T09:16:29.757Z,2.05
2022-08-09T09:19:22.453Z,2.00
2022-08-09T09:22:03.664Z,2.40
2022-08-09T09:24:34.917Z,2.10
2022-08-09T09:27:04.466Z,2.10
2022-08-09T09:29:58.145Z,2.13
2022-08-09T09:32:34.334Z,2.63
2022-08-09T09:35:09.148Z,2.38
2022-08-09T09:37:40.514Z,2.50
2022-08-09T09:40:11.871Z,2.47
2022-08-09T09:42:46.037Z,2.10
2022-08-09T09:45:26.398Z,1.98
2022-08-09T09:48:00.756Z,2.25
2022-08-09T09:50:50.918Z,2.38
2022-08-09T09:53:21.339Z,1.95
2022-08-09T09:56:04.074Z,2.00
2022-08-09T09:58:46.223Z,1.80
2022-08-09T10:01:31.205Z,1.85
2022-08-09T10:04:22.627Z,1.95
2022-08-09T10:07:03.234Z,1.80
2022-08-09T10:09:48.868Z,2.33
2022-08-09T10:12:43.642Z,2.75
2022-08-09T10:15:50.948Z,2.03
2022-08-09T10:18:12.620Z,2.17
2022-08-09T10:20:45.125Z,2.00
2022-08-09T10:23:20.192Z,2.70
2022-08-09T10:26:08.021Z,2.35
2022-08-09T10:28:40.310Z,2.10
2022-08-09T10:34:09.993Z,2.20
2022-08-09T10:36:50.304Z,2.08
2022-08-09T10:39:20.071Z,2.30
2022-08-09T10:41:48.604Z,2.05
2022-08-09T10:44:21.605Z,2.10
2022-08-09T10:47:14.160Z,2.33
2022-08-09T10:50:03.457Z,1.90
2022-08-09T10:52:48.151Z,1.88
2022-08-09T10:55:25.480Z,2.50
2022-08-09T10:58:00.374Z,2.25
2022-08-09T11:00:36.970Z,2.17
2022-08-09T11:03:50.529Z,2.50
2022-08-09T11:06:20.578Z,2.50
2022-08-09T11:08:53.980Z,2.08
2022-08-09T11:11:23.314Z,2.38
2022-08-09T11:14:28.390Z,2.05
2022-08-09T11:16:57.190Z,1.95
2022-08-09T11:20:20.282Z,2.47
2022-08-09T11:23:09.959Z,2.10
2022-08-09T11:25:47.124Z,2.10
2022-08-09T11:28:55.916Z,2.22
2022-08-09T11:31:50.357Z,1.90
2022-08-09T11:34:35.475Z,1.58
2022-08-09T11:37:07.359Z,2.40
2022-08-09T11:40:01.614Z,2.30
2022-08-09T11:42:46.996Z,1.90
2022-08-09T11:45:21.781Z,1.98
2022-08-09T11:47:53.743Z,2.42
2022-08-09T11:50:53.385Z,2.10
2022-08-09T11:53:58.080Z,2.03
2022-08-09T11:56:42.362Z,2.15
2022-08-09T11:59:33.609Z,1.90
2022-08-09T12:02:34.776Z,1.85
2022-08-09T12:04:57.976Z,2.22
2022-08-09T12:07:41.602Z,2.10
2022-08-09T12:10:14.396Z,2.30
2022-08-09T12:13:00.330Z,1.95
2022-08-09T12:15:50.537Z,2.65
2022-08-09T12:18:29.829Z,1.80
2022-08-09T12:20:59.078Z,1.80
2022-08-09T12:23:57.981Z,1.85
2022-08-09T12:26:19.400Z,1.73
2022-08-09T12:28:58.907Z,1.95
2022-08-09T12:32:01.965Z,2.00
2022-08-09T12:34:35.090Z,1.73
2022-08-09T12:37:21.755Z,1.88
2022-08-09T12:40:01.422Z,2.00
2022-08-09T12:42:30.615Z,1.70
2022-08-09T12:45:00.188Z,2.20
2022-08-09T12:47:37.261Z,1.73
2022-08-09T12:50:20.000Z,1.50
2022-08-09T12:53:18.189Z,1.70
2022-08-09T12:56:13.100Z,2.13
2022-08-09T12:58:28.819Z,2.05
2022-08-09T13:00:58.224Z,1.88
2022-08-09T13:03:58.576Z,1.90
2022-08-09T13:06:34.601Z,1.90
2022-08-09T13:09:11.502Z,1.90
2022-08-09T13:11:42.754Z,1.80
2022-08-09T13:14:40.565Z,2.22
2022-08-09T13:17:05.323Z,1.90
2022-08-09T13:20:10.070Z,2.10
2022-08-09T13:22:36.326Z,1.50
2022-08-09T13:25:14.572Z,2.00
2022-08-09T13:27:54.895Z,2.05
2022-08-09T13:30:51.291Z,2.13
2022-08-09T13:33:22.426Z,1.65
2022-08-09T13:36:39.708Z,2.20
2022-08-09T13:38:56.253Z,1.67
2022-08-09T13:41:57.741Z,1.98
2022-08-09T13:44:16.860Z,1.85
2022-08-09T13:47:27.536Z,1.58
2022-08-09T13:49:38.202Z,1.92
2022-08-09T13:52:23.137Z,2.05
2022-08-09T13:55:00.802Z,1.55
2022-08-09T13:57:36.332Z,1.77
2022-08-09T14:00:12.118Z,2.17
2022-08-09T14:02:42.452Z,1.83
2022-08-09T14:05:59.680Z,1.83
2022-08-09T14:08:19.534Z,1.67
2022-08-09T14:10:52.235Z,1.60
2022-08-09T14:13:27.907Z,1.75
2022-08-09T14:16:14.202Z,1.70
2022-08-09T14:18:50.409Z,1.80
2022-08-09T14:21:22.247Z,1.70
2022-08-09T14:24:05.323Z,1.58
2022-08-09T14:26:51.910Z,1.63
2022-08-09T14:29:25.841Z,1.80
2022-08-09T14:32:13.171Z,2.05
2022-08-09T14:34:44.870Z,1.60
2022-08-09T14:37:13.083Z,1.85
2022-08-09T14:39:46.397Z,1.73
2022-08-09T14:42:31.782Z,1.75
2022-08-09T14:46:46.136Z,1.55
2022-08-09T14:47:57.000Z,1.25
2022-08-09T14:50:26.006Z,1.40
2022-08-09T14:52:55.044Z,1.58
2022-08-09T14:55:24.401Z,1.50
2022-08-09T14:57:53.032Z,1.50
2022-08-09T15:00:23.137Z,1.52
2022-08-09T15:02:51.875Z,1.30
2022-08-09T15:05:20.407Z,1.50
2022-08-09T15:07:56.661Z,1.48
2022-08-09T15:10:28.479Z,1.70
2022-08-09T15:12:57.751Z,1.63
2022-08-09T15:15:28.570Z,1.80
2022-08-09T15:17:58.506Z,1.45
2022-08-09T15:21:57.383Z,1.75
2022-08-09T15:24:01.275Z,1.55
2022-08-09T15:26:05.545Z,1.80
2022-08-09T15:28:54.777Z,2.13
2022-08-09T15:31:28.659Z,1.52
2022-08-09T15:34:33.247Z,1.40
2022-08-09T15:37:01.167Z,1.60
2022-08-09T15:39:43.731Z,1.50
2022-08-09T15:42:22.242Z,1.23
2022-08-09T15:44:50.674Z,1.33
2022-08-09T15:47:21.734Z,1.52
2022-08-09T15:50:03.906Z,1.50
2022-08-09T15:52:33.837Z,1.60
2022-08-09T15:55:02.142Z,1.38
2022-08-09T15:57:35.717Z,1.67
2022-08-09T16:00:21.880Z,1.30
2022-08-09T16:02:56.402Z,1.73
2022-08-09T16:05:47.402Z,1.27
2022-08-09T16:08:30.977Z,1.70
2022-08-09T16:11:01.543Z,1.50
2022-08-09T16:14:03.450Z,1.45
2022-08-09T16:16:26.150Z,1.65
2022-08-09T16:18:56.192Z,1.60
2022-08-09T16:21:25.438Z,1.42
2022-08-09T16:23:55.571Z,1.92
2022-08-09T16:26:34.042Z,1.50
2022-08-09T16:29:10.982Z,1.42
2022-08-09T16:32:17.853Z,1.70
2022-08-09T16:34:29.215Z,1.67
2022-08-09T16:36:57.364Z,1.60
2022-08-09T16:39:26.725Z,1.30
2022-08-09T16:42:04.268Z,1.50
2022-08-09T16:44:35.228Z,1.40
2022-08-09T16:48:39.807Z,1.30
2022-08-09T16:50:29.396Z,1.48
2022-08-09T16:52:43.008Z,1.55
2022-08-09T16:55:15.798Z,1.50
2022-08-09T16:58:08.908Z,1.80
2022-08-09T17:00:34.632Z,1.42
2022-08-09T17:03:02.668Z,1.42
2022-08-09T17:06:08.263Z,1.00
2022-08-09T17:08:42.901Z,1.45
2022-08-09T17:11:09.183Z,1.40
2022-08-09T17:13:39.062Z,1.50
2022-08-09T17:16:14.564Z,1.83
2022-08-09T17:18:42.551Z,1.48
2022-08-09T17:21:13.249Z,1.63
2022-08-09T17:24:21.440Z,1.23
2022-08-09T17:26:38.406Z,1.50
2022-08-09T17:29:11.596Z,1.27
2022-08-09T17:31:49.794Z,1.60
2022-08-09T17:34:59.684Z,1.30
2022-08-09T17:37:07.547Z,1.45
2022-08-09T17:39:53.356Z,1.30
2022-08-09T17:42:42.161Z,2.15
2022-08-09T17:45:15.897Z,1.50
2022-08-09T17:48:02.610Z,1.70
2022-08-09T17:50:37.167Z,1.58
2022-08-09T17:53:19.288Z,1.20
2022-08-09T17:55:54.170Z,1.35
2022-08-09T17:58:27.017Z,1.13
2022-08-09T18:00:56.735Z,0.93
2022-08-09T18:03:29.407Z,1.30
2022-08-09T18:05:58.550Z,1.20
2022-08-09T18:08:29.068Z,1.35
2022-08-09T18:11:00.712Z,1.23
2022-08-09T18:13:39.146Z,1.30
2022-08-09T18:16:12.127Z,1.33
2022-08-09T18:18:42.952Z,1.27
2022-08-09T18:21:23.909Z,1.45
2022-08-09T18:24:11.406Z,1.40
2022-08-09T18:26:46.650Z,1.20
2022-08-09T18:30:39.959Z,1.70
2022-08-09T18:32:05.166Z,1.30
2022-08-09T18:34:35.691Z,1.52
2022-08-09T18:37:03.925Z,1.40
2022-08-09T18:39:33.061Z,1.70
2022-08-09T18:42:08.138Z,1.40
2022-08-09T18:44:37.409Z,1.30
2022-08-09T18:47:14.271Z,1.45
2022-08-09T18:49:46.998Z,1.40
2022-08-09T18:52:18.633Z,1.95
2022-08-09T18:54:53.677Z,1.55
2022-08-09T18:57:23.303Z,1.88
2022-08-09T18:59:55.278Z,1.60
2022-08-09T19:02:31.802Z,2.00
2022-08-09T19:05:14.281Z,1.60
2022-08-09T19:08:03.902Z,1.33
2022-08-09T19:10:37.627Z,1.50
2022-08-09T19:13:19.994Z,1.50
2022-08-09T19:15:50.994Z,1.95
2022-08-09T19:18:34.238Z,1.95
2022-08-09T19:21:09.688Z,2.63
2022-08-09T19:24:35.644Z,2.50
2022-08-09T19:26:31.903Z,2.05
2022-08-09T19:29:02.449Z,1.52
2022-08-09T19:31:45.769Z,1.70
2022-08-09T19:34:18.265Z,1.85
2022-08-09T19:36:52.713Z,1.60
2022-08-09T19:39:43.988Z,2.00
2022-08-09T19:42:15.344Z,2.60
2022-08-09T19:44:50.676Z,1.90
2022-08-09T19:47:23.746Z,2.00
2022-08-09T19:50:07.373Z,2.08
2022-08-09T19:52:49.394Z,2.00
2022-08-09T19:55:31.104Z,2.15
2022-08-09T19:58:16.022Z,2.00
2022-08-09T20:00:46.759Z,2.25
2022-08-09T20:04:12.489Z,1.67
2022-08-09T20:06:10.495Z,1.60
2022-08-09T20:08:55.289Z,1.67
2022-08-09T20:11:26.285Z,1.80
2022-08-09T20:13:55.200Z,1.98
2022-08-09T20:16:35.317Z,2.40
2022-08-09T20:19:42.237Z,2.05
2022-08-09T20:21:57.427Z,2.10
2022-08-09T20:24:33.778Z,2.00
2022-08-09T20:27:08.464Z,1.85
2022-08-09T20:29:38.822Z,2.20
2022-08-09T20:32:30.373Z,2.75
2022-08-09T20:34:56.913Z,3.22
2022-08-09T20:37:24.847Z,2.85
2022-08-09T20:40:14.870Z,1.77
2022-08-09T20:42:53.367Z,2.13
2022-08-09T20:45:59.592Z,1.83
2022-08-09T20:48:21.293Z,2.38
2022-08-09T20:50:55.719Z,1.80
2022-08-09T20:53:35.246Z,2.38
2022-08-09T20:56:21.271Z,2.50
2022-08-09T20:58:50.688Z,2.30
2022-08-09T21:01:34.589Z,1.92
2022-08-09T21:05:53.117Z,1.98
2022-08-09T21:06:59.715Z,1.98
2022-08-09T21:09:45.214Z,1.50
2022-08-09T21:14:48.299Z,1.88
2022-08-09T21:18:22.357Z,1.70
2022-08-09T21:20:22.867Z,1.88
2022-08-09T21:22:54.855Z,1.67
2022-08-09T21:25:44.185Z,2.00
2022-08-09T21:28:34.930Z,2.00
2022-08-09T21:31:16.269Z,2.40
2022-08-09T21:33:50.573Z,2.42
2022-08-09T21:36:23.427Z,2.58
2022-08-09T21:38:57.782Z,2.20
2022-08-09T21:42:03.931Z,1.65
2022-08-09T21:44:33.294Z,2.10
2022-08-09T21:47:03.908Z,2.10
2022-08-09T21:49:40.074Z,1.98
2022-08-09T21:52:16.600Z,1.70
2022-08-09T21:54:50.679Z,1.80
2022-08-09T21:57:36.942Z,1.88
2022-08-09T22:00:11.318Z,1.98
2022-08-09T22:02:40.300Z,1.58
2022-08-09T22:05:22.295Z,1.92
2022-08-09T22:07:53.395Z,1.55
2022-08-09T22:10:24.141Z,1.80
2022-08-09T22:12:52.880Z,2.00
2022-08-09T22:15:23.412Z,1.60
2022-08-09T22:18:03.808Z,1.73
2022-08-09T22:20:32.030Z,2.40
2022-08-09T22:23:00.318Z,2.00
2022-08-09T22:26:06.157Z,2.38
2022-08-09T22:28:29.427Z,2.10
2022-08-09T22:31:02.250Z,2.28
2022-08-09T22:33:48.609Z,2.28
2022-08-09T22:36:19.256Z,2.10
2022-08-09T22:38:47.877Z,2.08
2022-08-09T22:41:16.366Z,1.67
2022-08-09T22:44:01.550Z,2.60
2022-08-09T22:48:13.807Z,2.38
2022-08-09T22:49:23.467Z,2.03
2022-08-09T22:51:57.214Z,2.38
2022-08-09T22:54:27.176Z,2.28
2022-08-09T22:56:56.629Z,2.30
2022-08-09T22:59:56.835Z,2.25
2022-08-09T23:02:15.928Z,2.05
2022-08-09T23:04:54.161Z,2.03
2022-08-09T23:08:27.836Z,1.80
2022-08-09T23:10:30.497Z,2.17
2022-08-09T23:12:58.954Z,2.28
2022-08-09T23:15:27.743Z,1.92
2022-08-09T23:17:57.650Z,2.25
2022-08-09T23:20:26.384Z,2.15
2022-08-09T23:22:54.391Z,2.42
2022-08-09T23:25:22.655Z,2.10
2022-08-09T23:27:57.493Z,2.00
2022-08-09T23:30:38.894Z,2.40
2022-08-09T23:33:08.217Z,2.13
2022-08-09T23:36:05.925Z,1.85
2022-08-09T23:38:16.576Z,2.30
2022-08-09T23:40:44.575Z,2.37
2022-08-09T23:43:12.572Z,2.07
2022-08-09T23:45:40.600Z,1.42
2022-08-09T23:48:09.997Z,2.17
2022-08-09T23:50:38.087Z,2.27
2022-08-09T23:53:06.153Z,2.10
2022-08-09T23:55:34.723Z,1.85
2022-08-09T23:58:07.279Z,1.90
